createdAt,value
2023-11-23T00:01:37.685Z,35.55
2023-11-23T00:04:05.470Z,37.03
2023-11-23T00:06:37.876Z,36.58
2023-11-23T00:09:13.346Z,29.98
2023-11-23T00:14:58.400Z,32.75
2023-11-23T00:17:23.981Z,31.98
2023-11-23T00:20:00.562Z,27.20
2023-11-23T00:22:27.864Z,24.45
2023-11-23T00:25:06.342Z,23.15
2023-11-23T00:27:37.536Z,23.35
2023-11-23T00:30:33.148Z,27.35
2023-11-23T00:33:34.056Z,27.35
2023-11-23T00:36:09.132Z,40.45
2023-11-23T00:38:42.498Z,30.67
2023-11-23T00:42:36.502Z,31.05
2023-11-23T00:45:40.848Z,45.20
2023-11-23T00:49:09.981Z,39.83
2023-11-23T00:52:19.174Z,61.47
2023-11-23T00:54:48.757Z,58.50
2023-11-23T00:57:24.719Z,75.80
2023-11-23T00:59:55.849Z,41.08
2023-11-23T01:03:20.859Z,39.70
2023-11-23T01:05:57.071Z,30.98
2023-11-23T01:09:12.814Z,38.55
2023-11-23T01:12:06.767Z,44.92
2023-11-23T01:14:42.674Z,36.85
2023-11-23T01:20:24.465Z,45.10
2023-11-23T01:25:34.543Z,45.92
2023-11-23T01:28:48.996Z,45.10
2023-11-23T01:31:27.365Z,34.10
2023-11-23T01:34:02.630Z,31.70
2023-11-23T01:36:33.621Z,30.95
2023-11-23T01:39:04.314Z,31.92
2023-11-23T01:41:37.863Z,33.55
2023-11-23T01:44:28.818Z,32.97
2023-11-23T01:47:53.763Z,34.47
2023-11-23T01:51:52.843Z,41.05
2023-11-23T01:55:16.555Z,40.75
2023-11-23T01:59:00.420Z,36.92
2023-11-23T02:06:50.402Z,33.33
2023-11-23T02:10:20.151Z,35.63
2023-11-23T02:14:35.739Z,39.85
2023-11-23T02:18:33.959Z,39.30
2023-11-23T02:22:08.502Z,35.45
2023-11-23T02:33:57.926Z,36.45
2023-11-23T02:38:11.202Z,33.30
2023-11-23T02:41:29.688Z,36.53
2023-11-23T02:45:17.376Z,34.35
2023-11-23T02:47:52.659Z,37.38
2023-11-23T02:56:56.853Z,39.05
2023-11-23T02:59:48.470Z,38.13
2023-11-23T03:02:29.199Z,42.40
2023-11-23T03:05:01.989Z,36.60
2023-11-23T03:07:55.350Z,49.00
2023-11-23T03:10:37.524Z,33.65
2023-11-23T03:13:13.453Z,42.05
2023-11-23T03:16:42.760Z,36.58
2023-11-23T03:19:51.706Z,213.65
2023-11-23T03:22:29.483Z,301.55
2023-11-23T03:25:31.422Z,707.67
2023-11-23T03:28:10.501Z,704.42
2023-11-23T03:30:44.585Z,534.53
2023-11-23T03:35:51.968Z,383.25
2023-11-23T03:38:19.670Z,234.73
2023-11-23T03:41:02.548Z,659.28
2023-11-23T03:43:32.035Z,347.92
2023-11-23T03:46:23.490Z,49.15
2023-11-23T03:48:57.414Z,42.63
2023-11-23T03:51:27.553Z,81.13
2023-11-23T03:56:56.950Z,562.83
2023-11-23T03:59:31.745Z,651.03
2023-11-23T04:01:58.834Z,280.35
2023-11-23T04:04:34.946Z,198.45
2023-11-23T04:07:14.657Z,326.27
2023-11-23T04:09:42.102Z,64.07
2023-11-23T04:12:21.878Z,35.63
2023-11-23T04:15:03.694Z,39.28
2023-11-23T04:17:42.029Z,39.15
2023-11-23T04:20:50.390Z,32.58
2023-11-23T04:23:17.799Z,32.08
2023-11-23T04:25:47.893Z,39.03
2023-11-23T04:28:15.023Z,29.88
2023-11-23T04:30:45.112Z,32.13
2023-11-23T04:33:12.749Z,29.15
2023-11-23T04:35:46.054Z,31.38
2023-11-23T04:38:16.027Z,25.70
2023-11-23T04:40:43.173Z,28.63
2023-11-23T04:43:10.168Z,30.92
2023-11-23T04:45:37.151Z,31.23
2023-11-23T04:48:06.163Z,32.38
2023-11-23T04:50:34.557Z,35.67
2023-11-23T04:53:01.906Z,29.17
2023-11-23T04:55:31.996Z,29.92
2023-11-23T04:57:59.095Z,33.80
2023-11-23T05:00:27.395Z,40.40
2023-11-23T05:02:55.646Z,37.80
2023-11-23T05:05:22.904Z,43.70
2023-11-23T05:07:50.552Z,43.42
2023-11-23T05:10:19.059Z,191.80
2023-11-23T05:12:51.551Z,47.40
2023-11-23T05:15:22.724Z,172.25
2023-11-23T05:17:56.783Z,94.88
2023-11-23T05:20:27.050Z,47.42
2023-11-23T05:22:54.407Z,37.45
2023-11-23T05:25:30.186Z,47.85
2023-11-23T05:28:03.135Z,145.02
2023-11-23T05:30:34.056Z,36.17
2023-11-23T05:33:06.598Z,34.55
2023-11-23T05:35:40.034Z,56.15
2023-11-23T05:38:13.139Z,111.70
2023-11-23T05:40:58.167Z,58.70
2023-11-23T05:43:29.461Z,1030.90
2023-11-23T05:46:05.858Z,804.25
2023-11-23T05:48:39.138Z,1582.05
2023-11-23T05:51:10.814Z,583.25
2023-11-23T05:53:49.974Z,173.48
2023-11-23T05:56:37.408Z,584.33
2023-11-23T05:59:04.892Z,188.35
2023-11-23T06:01:32.772Z,54.20
2023-11-23T06:04:05.612Z,257.15
2023-11-23T06:06:35.900Z,145.95
2023-11-23T06:09:10.939Z,79.78
2023-11-23T06:11:38.269Z,54.08
2023-11-23T06:14:06.058Z,58.88
2023-11-23T06:16:33.430Z,92.00
2023-11-23T06:19:03.571Z,110.40
2023-11-23T06:21:34.729Z,80.10
2023-11-23T06:24:01.983Z,65.25
2023-11-23T06:26:33.153Z,80.13
2023-11-23T06:29:01.086Z,60.88
2023-11-23T06:31:28.934Z,59.83
2023-11-23T06:33:56.144Z,106.28
2023-11-23T06:36:23.362Z,78.30
2023-11-23T06:38:53.999Z,57.70
2023-11-23T06:41:26.967Z,74.18
2023-11-23T06:43:54.633Z,47.85
2023-11-23T06:46:22.153Z,53.58
2023-11-23T06:48:49.303Z,66.32
2023-11-23T06:51:16.686Z,48.55
2023-11-23T06:53:47.994Z,53.13
2023-11-23T06:56:18.798Z,46.75
2023-11-23T06:58:49.379Z,45.40
2023-11-23T07:01:17.136Z,28.92
2023-11-23T07:03:48.087Z,31.60
2023-11-23T07:06:15.491Z,36.55
2023-11-23T07:08:42.899Z,37.33
2023-11-23T07:11:14.261Z,35.00
2023-11-23T07:13:44.852Z,35.40
2023-11-23T07:16:18.971Z,30.95
2023-11-23T07:18:54.045Z,48.03
2023-11-23T07:21:36.776Z,75.97
2023-11-23T07:24:13.323Z,66.78
2023-11-23T07:26:40.779Z,60.42
2023-11-23T07:29:07.950Z,48.58
2023-11-23T07:31:34.975Z,55.85
2023-11-23T07:34:07.329Z,30.40
2023-11-23T07:36:55.226Z,29.02
2023-11-23T07:39:48.657Z,40.33
2023-11-23T07:42:17.332Z,32.17
2023-11-23T07:44:50.557Z,30.27
2023-11-23T07:47:17.572Z,31.60
2023-11-23T07:49:47.293Z,25.33
2023-11-23T07:52:16.189Z,28.75
2023-11-23T07:54:45.850Z,26.27
2023-11-23T07:57:13.017Z,27.17
2023-11-23T07:59:40.497Z,34.72
2023-11-23T08:02:07.839Z,25.20
2023-11-23T08:04:35.221Z,28.27
2023-11-23T08:07:02.747Z,22.63
2023-11-23T08:09:30.255Z,23.58
2023-11-23T08:11:58.422Z,19.40
2023-11-23T08:14:25.205Z,16.02
2023-11-23T08:16:52.049Z,20.38
2023-11-23T08:19:19.555Z,14.30
2023-11-23T08:21:49.160Z,15.93
2023-11-23T08:24:18.164Z,19.17
2023-11-23T08:26:45.401Z,16.83
2023-11-23T08:29:12.908Z,16.50
2023-11-23T08:31:40.930Z,16.48
2023-11-23T08:34:09.151Z,16.33
2023-11-23T08:36:37.327Z,22.35
2023-11-23T08:39:06.260Z,30.27
2023-11-23T08:41:33.241Z,31.38
2023-11-23T08:44:00.919Z,21.38
2023-11-23T08:46:28.569Z,23.98
2023-11-23T08:48:55.860Z,22.90
2023-11-23T08:51:23.601Z,22.27
2023-11-23T08:53:51.199Z,20.80
2023-11-23T08:56:18.492Z,24.60
2023-11-23T08:58:45.573Z,27.10
2023-11-23T09:01:12.758Z,22.58
2023-11-23T09:03:39.965Z,22.70
2023-11-23T09:06:07.194Z,20.20
2023-11-23T09:08:34.046Z,19.10
2023-11-23T09:11:00.786Z,19.10
2023-11-23T09:13:28.110Z,24.75
2023-11-23T09:15:55.518Z,20.67
2023-11-23T09:18:23.289Z,16.75
2023-11-23T09:21:01.074Z,18.10
2023-11-23T09:23:29.271Z,24.45
2023-11-23T09:25:56.341Z,24.88
2023-11-23T09:28:23.516Z,45.00
2023-11-23T09:30:50.310Z,42.28
2023-11-23T09:33:20.208Z,45.13
2023-11-23T09:35:47.770Z,156.15
2023-11-23T09:38:14.731Z,45.45
2023-11-23T09:40:44.647Z,32.83
2023-11-23T09:43:12.243Z,34.33
2023-11-23T09:45:39.928Z,29.00
2023-11-23T09:48:08.745Z,44.50
2023-11-23T09:50:39.017Z,41.83
2023-11-23T09:53:09.254Z,33.80
2023-11-23T09:55:36.260Z,32.00
2023-11-23T09:58:05.893Z,35.67
2023-11-23T10:00:36.522Z,38.65
2023-11-23T10:03:08.383Z,28.00
2023-11-23T10:05:35.960Z,32.33
2023-11-23T10:08:03.727Z,29.30
2023-11-23T10:10:30.863Z,46.83
2023-11-23T10:12:57.635Z,29.70
2023-11-23T10:15:27.076Z,40.08
2023-11-23T10:17:53.878Z,39.65
2023-11-23T10:20:22.536Z,41.70
2023-11-23T10:22:50.553Z,39.92
2023-11-23T10:25:30.473Z,36.15
2023-11-23T10:27:57.395Z,37.20
2023-11-23T10:30:28.988Z,42.22
2023-11-23T10:32:57.460Z,33.40
2023-11-23T10:35:29.519Z,37.70
2023-11-23T10:37:56.971Z,44.00
2023-11-23T10:40:25.581Z,51.10
2023-11-23T10:42:54.002Z,52.60
2023-11-23T10:45:22.867Z,52.03
2023-11-23T10:47:52.603Z,59.35
2023-11-23T10:50:20.734Z,48.08
2023-11-23T10:52:48.442Z,45.83
2023-11-23T10:55:15.336Z,50.78
2023-11-23T10:57:53.226Z,53.03
2023-11-23T11:00:24.588Z,47.53
2023-11-23T11:02:54.044Z,48.90
2023-11-23T11:05:29.728Z,46.67
2023-11-23T11:08:02.588Z,50.42
2023-11-23T11:10:33.519Z,47.60
2023-11-23T11:13:14.393Z,49.97
2023-11-23T11:15:56.640Z,41.20
2023-11-23T11:18:28.166Z,43.25
2023-11-23T11:21:15.684Z,49.67
2023-11-23T11:23:46.329Z,35.63
2023-11-23T11:26:19.308Z,38.00
2023-11-23T11:28:55.181Z,41.97
2023-11-23T11:31:40.653Z,43.72
2023-11-23T11:34:24.022Z,36.42
2023-11-23T11:37:05.141Z,32.90
2023-11-23T11:39:33.056Z,32.75
2023-11-23T11:42:04.926Z,30.05
2023-11-23T11:44:34.687Z,38.08
2023-11-23T11:47:02.671Z,39.92
2023-11-23T11:49:29.684Z,33.88
2023-11-23T11:51:56.608Z,25.10
2023-11-23T11:54:25.175Z,35.78
2023-11-23T11:56:52.870Z,24.42
2023-11-23T11:59:25.116Z,30.05
2023-11-23T12:01:53.032Z,23.67
2023-11-23T12:04:21.295Z,44.17
2023-11-23T12:06:54.390Z,26.40
2023-11-23T12:09:34.065Z,33.58
2023-11-23T12:12:06.875Z,26.52
2023-11-23T12:14:35.284Z,21.05
2023-11-23T12:17:13.170Z,24.67
2023-11-23T12:19:52.800Z,28.77
2023-11-23T12:22:24.428Z,28.80
2023-11-23T12:24:52.406Z,20.70
2023-11-23T12:27:21.919Z,25.63
2023-11-23T12:29:49.701Z,20.48
2023-11-23T12:32:17.945Z,21.83
2023-11-23T12:34:44.902Z,17.55
2023-11-23T12:37:11.723Z,29.33
2023-11-23T12:39:39.116Z,28.40
2023-11-23T12:42:06.057Z,28.98
2023-11-23T12:44:36.739Z,26.25
2023-11-23T12:47:04.383Z,25.65
2023-11-23T12:49:31.401Z,23.58
2023-11-23T12:51:59.848Z,24.02
2023-11-23T12:55:08.231Z,20.90
2023-11-23T12:57:35.416Z,21.15
2023-11-23T13:00:03.624Z,21.17
2023-11-23T13:02:30.853Z,26.83
2023-11-23T13:04:59.178Z,24.98
2023-11-23T13:07:27.325Z,24.67
2023-11-23T13:09:54.189Z,29.20
2023-11-23T13:12:21.400Z,26.63
2023-11-23T13:14:51.026Z,29.85
2023-11-23T13:17:20.888Z,20.48
2023-11-23T13:19:49.188Z,21.67
2023-11-23T13:22:17.091Z,19.85
2023-11-23T13:24:44.609Z,25.98
2023-11-23T13:27:13.424Z,21.30
2023-11-23T13:29:40.408Z,22.90
2023-11-23T13:32:08.136Z,19.80
2023-11-23T13:34:35.799Z,26.63
2023-11-23T13:37:02.985Z,25.23
2023-11-23T13:39:32.452Z,18.58
2023-11-23T13:41:59.259Z,18.75
2023-11-23T13:44:26.151Z,20.00
2023-11-23T13:46:53.501Z,22.73
2023-11-23T13:49:22.193Z,22.05
2023-11-23T13:51:49.116Z,34.53
2023-11-23T13:54:16.015Z,35.80
2023-11-23T13:56:44.080Z,31.60
2023-11-23T13:59:12.424Z,24.02
2023-11-23T14:01:40.073Z,24.40
2023-11-23T14:04:07.787Z,23.50
2023-11-23T14:06:34.823Z,22.60
2023-11-23T14:09:03.633Z,29.77
2023-11-23T14:11:30.454Z,23.83
2023-11-23T14:13:57.354Z,21.50
2023-11-23T14:16:24.323Z,21.10
2023-11-23T14:18:51.333Z,21.33
2023-11-23T14:21:18.614Z,21.63
2023-11-23T14:23:50.108Z,22.63
2023-11-23T14:26:21.632Z,23.63
2023-11-23T14:28:51.268Z,17.88
2023-11-23T14:31:20.633Z,22.17
2023-11-23T14:33:47.782Z,20.85
2023-11-23T14:36:15.444Z,23.10
2023-11-23T14:38:42.390Z,25.23
2023-11-23T14:41:09.839Z,18.77
2023-11-23T14:43:36.692Z,17.50
2023-11-23T14:46:03.508Z,26.17
2023-11-23T14:48:30.405Z,22.20
2023-11-23T14:50:57.179Z,27.05
2023-11-23T14:53:28.550Z,22.10
2023-11-23T14:55:57.062Z,21.55
2023-11-23T14:58:24.240Z,19.77
2023-11-23T15:00:54.066Z,30.17
2023-11-23T15:03:21.268Z,26.65
2023-11-23T15:05:49.810Z,25.20
2023-11-23T15:08:17.759Z,20.58
2023-11-23T15:10:45.954Z,26.25
2023-11-23T15:13:18.773Z,24.75
2023-11-23T15:15:49.993Z,22.45
2023-11-23T15:18:16.870Z,26.45
2023-11-23T15:20:47.196Z,21.50
2023-11-23T15:23:14.163Z,23.17
2023-11-23T15:25:41.008Z,24.08
2023-11-23T15:28:11.822Z,35.03
2023-11-23T15:30:41.999Z,22.50
2023-11-23T15:33:09.374Z,24.75
2023-11-23T15:35:38.473Z,30.20
2023-11-23T15:38:06.223Z,30.77
2023-11-23T15:40:33.121Z,31.65
2023-11-23T15:42:59.930Z,31.42
2023-11-23T15:45:26.726Z,26.40
2023-11-23T15:47:53.844Z,30.40
2023-11-23T15:50:24.164Z,32.47
2023-11-23T15:52:56.242Z,32.92
2023-11-23T15:55:24.739Z,30.05
2023-11-23T15:57:52.163Z,32.38
2023-11-23T16:00:25.942Z,46.03
2023-11-23T16:02:55.740Z,74.03
2023-11-23T16:05:28.783Z,58.25
2023-11-23T16:07:56.129Z,58.83
2023-11-23T16:10:24.024Z,54.67
2023-11-23T16:12:50.911Z,58.33
2023-11-23T16:15:17.892Z,57.13
2023-11-23T16:17:45.565Z,65.43
2023-11-23T16:20:17.461Z,64.35
2023-11-23T16:22:47.663Z,56.95
2023-11-23T16:25:16.376Z,44.88
2023-11-23T16:27:43.181Z,43.83
2023-11-23T16:30:13.381Z,44.22
2023-11-23T16:32:41.700Z,45.30
2023-11-23T16:35:12.092Z,45.60
2023-11-23T16:37:39.963Z,37.90
2023-11-23T16:40:11.754Z,38.97
2023-11-23T16:42:42.046Z,34.20
2023-11-23T16:45:13.228Z,30.20
2023-11-23T16:47:44.086Z,33.63
2023-11-23T16:50:16.635Z,48.70
2023-11-23T16:52:43.614Z,74.97
2023-11-23T16:55:21.116Z,46.05
2023-11-23T16:57:48.735Z,46.17
2023-11-23T17:00:22.143Z,37.20
2023-11-23T17:02:49.437Z,35.33
2023-11-23T17:05:16.715Z,31.52
2023-11-23T17:07:43.979Z,38.47
2023-11-23T17:10:17.595Z,42.97
2023-11-23T17:12:45.254Z,48.80
2023-11-23T17:15:13.304Z,42.83
2023-11-23T17:17:46.232Z,31.25
2023-11-23T17:20:15.389Z,57.30
2023-11-23T17:22:46.249Z,64.88
2023-11-23T17:25:13.578Z,65.35
2023-11-23T17:27:42.846Z,59.85
2023-11-23T17:30:10.345Z,67.45
2023-11-23T17:32:39.850Z,59.78
2023-11-23T17:35:09.675Z,53.95
2023-11-23T17:37:37.198Z,45.75
2023-11-23T17:40:08.221Z,51.65
2023-11-23T17:42:35.491Z,51.28
2023-11-23T17:45:02.747Z,46.22
2023-11-23T17:47:29.772Z,37.05
2023-11-23T17:50:00.764Z,37.55
2023-11-23T17:52:27.995Z,52.67
2023-11-23T17:54:58.685Z,49.28
2023-11-23T17:57:26.241Z,54.70
2023-11-23T17:59:57.189Z,46.88
2023-11-23T18:02:24.761Z,44.88
2023-11-23T18:04:57.411Z,45.63
2023-11-23T18:07:25.311Z,65.22
2023-11-23T18:09:52.467Z,58.30
2023-11-23T18:12:19.722Z,51.03
2023-11-23T18:14:46.810Z,54.10
2023-11-23T18:17:14.017Z,44.53
2023-11-23T18:19:41.796Z,41.83
2023-11-23T18:22:09.390Z,48.45
2023-11-23T18:24:37.013Z,56.67
2023-11-23T18:27:05.133Z,61.70
2023-11-23T18:29:32.258Z,48.45
2023-11-23T18:31:59.373Z,65.38
2023-11-23T18:34:26.407Z,51.80
2023-11-23T18:36:53.526Z,46.75
2023-11-23T18:39:23.905Z,54.10
2023-11-23T18:41:50.967Z,59.25
2023-11-23T18:44:18.335Z,55.83
2023-11-23T18:46:45.637Z,52.50
2023-11-23T18:49:13.682Z,61.97
2023-11-23T18:51:41.582Z,55.85
2023-11-23T18:54:08.983Z,52.33
2023-11-23T18:56:37.158Z,60.65
2023-11-23T18:59:08.815Z,46.20
2023-11-23T19:01:47.746Z,55.30
2023-11-23T19:04:15.434Z,50.10
2023-11-23T19:06:54.459Z,44.40
2023-11-23T19:09:28.804Z,43.38
2023-11-23T19:11:57.989Z,45.97
2023-11-23T19:14:28.336Z,45.88
2023-11-23T19:16:55.591Z,42.47
2023-11-23T19:19:28.223Z,56.75
2023-11-23T19:22:03.220Z,61.15
2023-11-23T19:24:33.493Z,56.00
2023-11-23T19:27:04.379Z,60.45
2023-11-23T19:29:52.690Z,63.28
2023-11-23T19:32:41.412Z,53.78
2023-11-23T19:35:21.097Z,54.58
2023-11-23T19:37:56.316Z,59.72
2023-11-23T19:40:26.792Z,65.10
2023-11-23T19:43:23.169Z,66.55
2023-11-23T19:46:09.021Z,50.95
2023-11-23T19:48:36.625Z,58.90
2023-11-23T19:51:06.340Z,56.92
2023-11-23T19:53:41.747Z,57.42
2023-11-23T19:56:09.763Z,57.83
2023-11-23T19:58:38.627Z,57.00
2023-11-23T20:01:09.316Z,51.80
2023-11-23T20:03:36.556Z,53.35
2023-11-23T20:06:08.166Z,57.13
2023-11-23T20:08:48.946Z,62.63
2023-11-23T20:11:22.765Z,52.10
2023-11-23T20:14:21.795Z,66.35
2023-11-23T20:17:51.722Z,74.18
2023-11-23T20:20:01.796Z,63.70
2023-11-23T20:22:30.893Z,58.13
2023-11-23T20:25:08.573Z,61.67
2023-11-23T20:27:48.574Z,54.90
2023-11-23T20:30:27.334Z,60.72
2023-11-23T20:32:54.580Z,61.83
2023-11-23T20:35:23.599Z,55.92
2023-11-23T20:37:55.846Z,56.83
2023-11-23T20:40:24.479Z,61.42
2023-11-23T20:42:55.260Z,56.42
2023-11-23T20:45:39.652Z,51.22
2023-11-23T20:48:06.729Z,57.13
2023-11-23T20:51:01.936Z,59.65
2023-11-23T20:53:28.602Z,55.75
2023-11-23T20:55:58.997Z,52.17
2023-11-23T20:58:34.836Z,57.58
2023-11-23T21:01:17.201Z,57.63
2023-11-23T21:03:44.955Z,58.15
2023-11-23T21:06:20.149Z,68.47
2023-11-23T21:08:52.979Z,61.97
2023-11-23T21:11:24.379Z,66.78
2023-11-23T21:13:53.870Z,77.57
2023-11-23T21:16:46.501Z,61.58
2023-11-23T21:19:14.204Z,62.72
2023-11-23T21:21:44.397Z,67.45
2023-11-23T21:24:14.950Z,66.40
2023-11-23T21:26:42.208Z,72.53
2023-11-23T21:29:19.349Z,66.07
2023-11-23T21:31:46.545Z,65.72
2023-11-23T21:34:57.036Z,67.75
2023-11-23T21:37:24.088Z,60.60
2023-11-23T21:39:58.740Z,59.97
2023-11-23T21:42:26.000Z,63.30
2023-11-23T21:44:53.283Z,67.18
2023-11-23T21:47:20.521Z,68.93
2023-11-23T21:50:10.371Z,54.10
2023-11-23T21:52:38.568Z,59.42
2023-11-23T21:55:12.525Z,57.13
2023-11-23T21:57:47.458Z,51.85
2023-11-23T22:01:30.443Z,50.63
2023-11-23T22:03:28.457Z,54.45
2023-11-23T22:06:00.615Z,56.75
2023-11-23T22:08:31.124Z,54.97
2023-11-23T22:11:01.637Z,51.28
2023-11-23T22:13:33.874Z,46.83
2023-11-23T22:16:05.845Z,50.08
2023-11-23T22:18:38.387Z,46.78
2023-11-23T22:21:15.700Z,49.15
2023-11-23T22:23:42.687Z,45.95
2023-11-23T22:26:37.724Z,49.83
2023-11-23T22:29:03.192Z,47.95
2023-11-23T22:31:38.401Z,40.67
2023-11-23T22:34:09.759Z,43.70
2023-11-23T22:36:47.496Z,40.50
2023-11-23T22:39:20.632Z,48.95
2023-11-23T22:41:51.374Z,58.25
2023-11-23T22:44:20.460Z,48.90
2023-11-23T22:46:56.389Z,44.03
2023-11-23T22:49:24.932Z,52.50
2023-11-23T22:52:20.426Z,49.78
2023-11-23T22:55:25.350Z,49.53
2023-11-23T22:58:41.345Z,48.90
2023-11-23T23:01:39.968Z,49.45
2023-11-23T23:04:22.096Z,50.10
2023-11-23T23:06:55.827Z,50.38
2023-11-23T23:09:34.624Z,52.72
2023-11-23T23:12:02.079Z,56.30
2023-11-23T23:14:57.936Z,47.53
2023-11-23T23:17:30.705Z,59.53
2023-11-23T23:20:03.646Z,52.25
2023-11-23T23:22:39.793Z,48.85
2023-11-23T23:25:10.407Z,48.88
2023-11-23T23:28:10.379Z,62.28
2023-11-23T23:30:57.711Z,59.75
2023-11-23T23:33:28.482Z,64.32
2023-11-23T23:35:55.875Z,67.75
2023-11-23T23:38:34.618Z,70.85
2023-11-23T23:41:11.691Z,62.70
2023-11-23T23:44:30.136Z,58.88
2023-11-23T23:47:40.793Z,69.78
2023-11-23T23:50:58.541Z,58.80
2023-11-23T23:57:37.589Z,63.22
